| Date & Time | Wind Spd (mph) | Wind Dir (°) | Wind Gust (mph) | Wind Spd Sonic (mph) | Wind Dir Sonic (°) | Wind Gust Sonic (mph) |
|---|---|---|---|---|---|---|
| 5/9/26 - 2120 | 13.4 | N | 3 | 16.6 | 14.8 | N | 356 | 16.6 |
| 5/9/26 - 2115 | 12.1 | N | 4 | 15.9 | 14.0 | N | 358 | 16.3 |
| 5/9/26 - 2110 | 10.4 | N | 1 | 14.5 | 12.7 | N | 354 | 16.3 |
| 5/9/26 - 2105 | 12.3 | NNE | 22 | 16.4 | 14.0 | NNE | 15 | 17.2 |
| 5/9/26 - 2100 | 13.5 | NNE | 25 | 17.5 | 15.1 | NNE | 19 | 17.4 |
| 5/9/26 - 2055 | 12.4 | NNE | 20 | 16.2 | 14.6 | NNE | 13 | 16.8 |
| Max | 13.5 | - | 17.5 | 15.1 | - | 17.4 |
| Avg | 12.4 | - | 16.2 | 14.2 | - | 16.8 |
| Min | 10.4 | - | 14.5 | 12.7 | - | 16.3 |
| Wind Spd | 11.6 mph 1.8 |
|---|---|
| Wind Spd Sonic | 13.6 mph 0.2 |
| Wind Dir | N | 9 ° |
| Wind Dir Sonic | N | 2 ° |
| Wind Gust | 16.4 mph 2.6 |
| Wind Gust Sonic | 17.2 mph 0.7 |
| Temp | 46.0 °F 2.9 |
| WindChill | 39.8 °F 2.9 |
| RH | 32 % 23 |
| Dew Pt | 18.0 °F 10.0 |
| Wet Bulb | 35.9 °F 1.2 |
| Daily Max Wind | 26.7 mph 8.7 |
| Time of Max Wind | 1140 |
| Max Wind Dir | SW | 215 ° |
| Daily Max Gust Sonic | 26.0 mph 8.7 |
| Time Wind Max Sonic | 0631 |
| Dir Max Gust Sonic | N | 3 Degrees |
| Daily Max Temp | 53.6 °F 7.5 |
| Daily Min Temp | 36.6 °F 2.7 |
| Yest MaxT | 46.0 °F |
| Yest MinT | 33.8 °F |
| Yest MaxGst | 35.3 mph |
| Date & Time | Temp (°F) | WindChill (°F) | RH (%) | Dew Pt (°F) | Wet Bulb (°F) | Wind Spd (mph) | Wind Spd Sonic (mph) | Wind Dir (°) | Wind Dir Sonic (°) | Wind Gust (mph) | Wind Gust Sonic (mph) | Daily Min Temp (°F) | Daily Max Temp (°F) | Daily Max Wind (mph) | Daily Max Gust Sonic (mph) |
|---|---|---|---|---|---|---|---|---|---|---|---|---|---|---|---|
| 5/9/26 - 2115 | 46.0 | 39.8 | 32 | 18.0 | 35.9 | 11.6 | 13.6 | N | 9 | N | 2 | 16.4 | 17.2 | 36.6 | 53.6 | 26.7 | 26.0 |
| 5/9/26 - 2100 | 46.3 | 39.8 | 32 | 18.3 | 36.1 | 13.0 | 14.8 | NNE | 23 | NNE | 17 | 17.6 | 17.4 | 36.6 | 53.6 | 26.7 | 26.0 |
| 5/9/26 - 2045 | 46.4 | 40.0 | 34 | 19.5 | 36.4 | 13.0 | 14.2 | NNE | 25 | NNE | 18 | 17.7 | 17.7 | 36.6 | 53.6 | 26.7 | 26.0 |
| 5/9/26 - 2030 | 46.9 | 40.3 | 34 | 19.9 | 36.8 | 13.6 | 13.8 | NNE | 24 | NNE | 18 | 19.7 | 20.1 | 36.6 | 53.6 | 26.7 | 26.0 |
| 5/9/26 - 2015 | 47.4 | 41.7 | 35 | 21.0 | 37.4 | 9.6 | 11.8 | N | 6 | N | 0 | 17.6 | 17.7 | 36.6 | 53.6 | 26.7 | 26.0 |
| 5/9/26 - 2000 | 47.8 | 42.5 | 34 | 20.6 | 37.5 | 8.6 | 10.9 | N | 3 | N | 356 | 16.5 | 15.7 | 36.6 | 53.6 | 26.7 | 26.0 |
| 5/9/26 - 1945 | 48.1 | 42.9 | 32 | 19.6 | 37.4 | 9.0 | 11.6 | N | 3 | N | 356 | 16.0 | 16.1 | 36.6 | 53.6 | 26.7 | 26.0 |
| 5/9/26 - 1930 | 48.4 | 45.0 | 32 | 19.6 | 37.5 | 4.2 | 10.0 | NNW | 348 | NNW | 342 | 11.2 | 14.3 | 36.6 | 53.6 | 26.7 | 26.0 |
| 5/9/26 - 1915 | 48.5 | 47.3 | 33 | 20.6 | 37.8 | 1.5 | 8.5 | NNW | 329 | NW | 325 | 6.0 | 13.2 | 36.6 | 53.6 | 26.7 | 26.0 |
| 5/9/26 - 1900 | 49.7 | 46.2 | 30 | 19.5 | 38.2 | 4.7 | 9.4 | NNW | 346 | NNW | 340 | 12.4 | 16.1 | 36.6 | 53.6 | 26.7 | 26.0 |
| 5/9/26 - 1845 | 52.8 | - | 36 | 26.4 | 41.6 | 0.2 | 5.4 | WNW | 291 | W | 271 | 0.2 | 11.9 | 36.6 | 53.6 | 26.7 | 26.0 |
| 5/9/26 - 1830 | 50.1 | - | 35 | 23.2 | 39.4 | 0.5 | 6.6 | WNW | 294 | WNW | 282 | 5.3 | 13.4 | 36.6 | 53.5 | 26.7 | 26.0 |
| 5/9/26 - 1815 | 51.3 | - | 36 | 25.4 | 40.6 | 1.1 | 8.4 | WSW | 255 | WSW | 251 | 7.9 | 15.9 | 36.6 | 53.5 | 26.7 | 26.0 |
| 5/9/26 - 1800 | 52.0 | - | 36 | 25.9 | 41.0 | 0.8 | 8.2 | WSW | 249 | WSW | 248 | 5.4 | 14.5 | 36.6 | 53.5 | 26.7 | 26.0 |
| 5/9/26 - 1745 | 52.0 | - | 38 | 27.3 | 41.5 | 0.3 | 5.8 | SW | 232 | SW | 232 | 1.8 | 10.7 | 36.6 | 53.5 | 26.7 | 26.0 |
| 5/9/26 - 1730 | 51.4 | - | 40 | 27.8 | 41.3 | 1.1 | 7.8 | SW | 235 | SW | 236 | 7.3 | 16.6 | 36.6 | 53.5 | 26.7 | 26.0 |
| 5/9/26 - 1715 | 50.8 | - | 36 | 25.2 | 40.3 | 1.4 | 7.5 | WSW | 256 | WNW | 298 | 9.2 | 14.3 | 36.6 | 53.5 | 26.7 | 26.0 |
| 5/9/26 - 1700 | 52.6 | - | 40 | 28.9 | 42.3 | 4.2 | 9.2 | SW | 220 | SW | 215 | 10.4 | 14.3 | 36.6 | 53.5 | 26.7 | 26.0 |
| 5/9/26 - 1645 | 51.4 | - | 39 | 27.2 | 41.2 | 1.0 | 5.4 | SW | 224 | W | 278 | 5.8 | 11.0 | 36.6 | 52.7 | 26.7 | 26.0 |
| 5/9/26 - 1630 | 50.5 | - | 34 | 23.4 | 39.6 | 1.6 | 5.0 | SW | 223 | NW | 309 | 8.6 | 10.5 | 36.6 | 51.7 | 26.7 | 26.0 |
| 5/9/26 - 1615 | 49.8 | 45.5 | 34 | 22.7 | 39.1 | 6.6 | 8.4 | SW | 221 | N | 354 | 15.3 | 17.2 | 36.6 | 50.9 | 26.7 | 26.0 |
| 5/9/26 - 1600 | 49.3 | 43.4 | 35 | 22.8 | 38.8 | 11.4 | 12.6 | SW | 220 | N | 353 | 21.0 | 20.6 | 36.6 | 50.9 | 26.7 | 26.0 |
| 5/9/26 - 1545 | 49.8 | 44.7 | 36 | 24.0 | 39.4 | 9.7 | 10.1 | SW | 220 | NNE | 17 | 17.3 | 16.6 | 36.6 | 50.9 | 26.7 | 26.0 |
| 5/9/26 - 1530 | 49.1 | 44.3 | 37 | 24.2 | 39.1 | 8.6 | 10.0 | SW | 220 | N | 5 | 15.4 | 16.3 | 36.6 | 50.9 | 26.7 | 26.0 |
| 5/9/26 - 1515 | 49.4 | 44.4 | 37 | 24.1 | 39.2 | 9.7 | 11.4 | SW | 219 | NNE | 25 | 16.5 | 17.0 | 36.6 | 50.9 | 26.7 | 26.0 |
| 5/9/26 - 1500 | 48.8 | 42.9 | 37 | 24.0 | 38.9 | 10.9 | 11.7 | SW | 219 | N | 7 | 20.5 | 20.4 | 36.6 | 50.9 | 26.7 | 26.0 |
| 5/9/26 - 1445 | 49.5 | 45.1 | 36 | 23.4 | 39.1 | 7.5 | 9.5 | SW | 219 | NNE | 24 | 14.6 | 18.6 | 36.6 | 50.9 | 26.7 | 26.0 |
| 5/9/26 - 1430 | 48.2 | 42.2 | 36 | 22.6 | 38.2 | 11.5 | 12.5 | SW | 218 | NNE | 23 | 20.4 | 17.4 | 36.6 | 48.9 | 26.7 | 26.0 |
| 5/9/26 - 1415 | 48.4 | 42.6 | 37 | 23.2 | 38.4 | 10.5 | 11.2 | SW | 218 | NNE | 23 | 19.2 | 17.4 | 36.6 | 48.9 | 26.7 | 26.0 |
| 5/9/26 - 1400 | 47.8 | 41.2 | 39 | 23.8 | 38.3 | 11.5 | 12.3 | SW | 218 | NNE | 22 | 23.6 | 21.2 | 36.6 | 48.7 | 26.7 | 26.0 |
| 5/9/26 - 1345 | 47.3 | 41.8 | 41 | 24.6 | 38.3 | 9.4 | 10.8 | SW | 218 | NNE | 15 | 15.8 | 16.8 | 36.6 | 47.6 | 26.7 | 26.0 |
| 5/9/26 - 1330 | 46.7 | 40.7 | 42 | 25.1 | 38.1 | 11.0 | 11.4 | SW | 218 | NNE | 21 | 17.4 | 16.6 | 36.6 | 47.1 | 26.7 | 26.0 |
| 5/9/26 - 1315 | 46.4 | 39.6 | 43 | 25.1 | 37.9 | 12.0 | 12.4 | SW | 217 | N | 8 | 20.9 | 18.6 | 36.6 | 46.7 | 26.7 | 26.0 |
| 5/9/26 - 1300 | 46.2 | 38.6 | 43 | 24.7 | 37.7 | 15.2 | 15.8 | SW | 216 | N | 11 | 24.9 | 21.2 | 36.6 | 46.5 | 26.7 | 26.0 |
| 5/9/26 - 1245 | 45.8 | 38.7 | 43 | 24.6 | 37.5 | 13.2 | 13.8 | SW | 216 | NNE | 29 | 21.0 | 20.4 | 36.6 | 45.9 | 26.7 | 26.0 |
| 5/9/26 - 1230 | 45.4 | 38.8 | 42 | 23.8 | 37.0 | 12.2 | 14.0 | SW | 216 | NNE | 12 | 17.5 | 17.7 | 36.6 | 45.9 | 26.7 | 26.0 |
| 5/9/26 - 1215 | 44.6 | 36.7 | 46 | 25.0 | 37.0 | 14.7 | 15.5 | SW | 215 | NNE | 23 | 23.7 | 21.7 | 36.6 | 45.1 | 26.7 | 26.0 |
| 5/9/26 - 1200 | 44.4 | 36.4 | 46 | 25.0 | 36.9 | 15.2 | 16.5 | SW | 215 | NE | 35 | 23.5 | 22.8 | 36.6 | 44.9 | 26.7 | 26.0 |
| 5/9/26 - 1145 | 43.8 | 35.1 | 48 | 25.2 | 36.5 | 16.7 | 17.4 | SW | 215 | NNE | 25 | 26.7 | 23.5 | 36.6 | 44.2 | 26.7 | 26.0 |
| 5/9/26 - 1130 | 43.2 | 35.3 | 48 | 24.8 | 36.1 | 14.2 | 15.5 | SSW | 213 | NNE | 19 | 20.2 | 20.6 | 36.6 | 43.6 | 26.3 | 26.0 |
| 5/9/26 - 1115 | 42.8 | 34.2 | 50 | 25.7 | 36.2 | 16.0 | 17.8 | SW | 214 | NNE | 23 | 24.1 | 25.7 | 36.6 | 43.0 | 26.3 | 26.0 |
| 5/9/26 - 1100 | 42.6 | 33.6 | 51 | 25.8 | 36.0 | 16.0 | 17.8 | SSW | 213 | NNE | 27 | 26.0 | 22.8 | 36.6 | 42.8 | 26.3 | 26.0 |
| 5/9/26 - 1045 | 42.2 | 33.9 | 50 | 25.1 | 35.6 | 14.5 | 16.4 | SSW | 213 | NNE | 26 | 20.7 | 21.5 | 36.6 | 42.6 | 26.3 | 26.0 |
| 5/9/26 - 1030 | 41.6 | 33.2 | 51 | 24.7 | 35.2 | 13.8 | 15.9 | SSW | 211 | NNE | 24 | 20.4 | 19.5 | 36.6 | 41.8 | 26.3 | 26.0 |
| 5/9/26 - 1015 | 41.2 | 33.4 | 49 | 23.7 | 34.7 | 11.6 | 13.5 | SSW | 211 | NNE | 24 | 18.8 | 18.3 | 36.6 | 41.7 | 26.3 | 26.0 |
| 5/9/26 - 1000 | 40.8 | 33.6 | 52 | 24.5 | 34.6 | 10.2 | 12.7 | SSW | 213 | NNE | 22 | 14.8 | 16.6 | 36.6 | 41.0 | 26.3 | 26.0 |
| 5/9/26 - 0945 | 40.4 | 32.0 | 53 | 24.6 | 34.5 | 12.8 | 14.9 | SSW | 213 | NNE | 22 | 19.6 | 20.1 | 36.6 | 40.9 | 26.3 | 26.0 |
| 5/9/26 - 0930 | 39.8 | 31.2 | 54 | 24.4 | 34.0 | 13.2 | 15.6 | SSW | 213 | NNE | 18 | 19.3 | 20.1 | 36.6 | 40.9 | 26.3 | 26.0 |
| 5/9/26 - 0915 | 39.8 | 32.1 | 55 | 25.0 | 34.3 | 11.0 | 13.3 | SSW | 212 | NNE | 22 | 16.1 | 16.8 | 36.6 | 40.9 | 26.3 | 26.0 |
| 5/9/26 - 0900 | 39.9 | 32.9 | 56 | 25.5 | 34.4 | 10.0 | 12.1 | SSW | 212 | NNE | 27 | 13.4 | 14.8 | 36.6 | 40.9 | 26.3 | 26.0 |
| 5/9/26 - 0845 | 39.6 | 32.1 | 56 | 25.2 | 34.2 | 10.4 | 12.3 | SSW | 210 | NNE | 30 | 15.0 | 16.3 | 36.6 | 40.9 | 26.3 | 26.0 |
| 5/9/26 - 0830 | 39.2 | 31.7 | 57 | 25.3 | 34.0 | 9.4 | 11.5 | SSW | 207 | NNE | 31 | 15.2 | 15.9 | 36.6 | 40.9 | 26.3 | 26.0 |
| 5/9/26 - 0815 | 38.8 | 30.6 | 56 | 24.3 | 33.4 | 12.1 | 14.2 | SSW | 193 | NNE | 28 | 16.2 | 16.6 | 36.6 | 40.9 | 26.3 | 26.0 |
| 5/9/26 - 0800 | 38.5 | 29.8 | 54 | 23.2 | 32.9 | 13.7 | 15.9 | SE | 142 | NNE | 23 | 17.1 | 17.7 | 36.6 | 40.9 | 26.3 | 26.0 |
| 5/9/26 - 0745 | 38.4 | 29.4 | 54 | 23.4 | 32.9 | 14.1 | 16.7 | NE | 51 | NNE | 22 | 17.9 | 18.8 | 36.6 | 40.9 | 26.3 | 26.0 |
| 5/9/26 - 0730 | 37.5 | 28.0 | 58 | 24.0 | 32.6 | 15.0 | 18.5 | ENE | 72 | NNE | 15 | 19.2 | 21.0 | 36.6 | 40.9 | 26.3 | 26.0 |
| 5/9/26 - 0715 | 37.0 | 27.4 | 60 | 24.4 | 32.4 | 14.6 | 18.6 | NNE | 33 | N | 8 | 19.5 | 21.0 | 36.6 | 40.9 | 26.3 | 26.0 |
| 5/9/26 - 0700 | 37.0 | 26.6 | 59 | 24.0 | 32.3 | 16.0 | 19.7 | N | 11 | N | 4 | 23.8 | 24.8 | 36.6 | 40.9 | 26.3 | 26.0 |
| 5/9/26 - 0645 | 37.0 | 26.3 | 57 | 23.4 | 32.1 | 18.0 | 21.8 | N | 11 | N | 5 | 24.3 | 26.0 | 36.9 | 40.9 | 26.3 | 26.0 |
| 5/9/26 - 0630 | 37.2 | 26.5 | 57 | 23.2 | 32.1 | 18.5 | 21.8 | NNE | 12 | N | 5 | 23.8 | 24.8 | 37.0 | 40.9 | 26.3 | 25.0 |
| 5/9/26 - 0615 | 37.5 | 26.7 | 54 | 22.5 | 32.1 | 18.1 | 21.4 | NNE | 18 | NNE | 12 | 26.3 | 25.0 | 37.2 | 40.9 | 26.3 | 25.0 |
| 5/9/26 - 0600 | 38.0 | 28.1 | 50 | 21.1 | 32.0 | 16.2 | 19.0 | NNE | 26 | NNE | 21 | 21.2 | 21.5 | 37.7 | 40.9 | 21.2 | 21.5 |
| 5/9/26 - 0545 | 38.4 | 29.3 | 49 | 20.9 | 32.2 | 14.1 | 16.4 | NNE | 25 | NNE | 20 | 18.9 | 19.5 | 38.2 | 40.9 | 20.2 | 20.4 |
| 5/9/26 - 0530 | 38.6 | 29.8 | 48 | 20.7 | 32.3 | 13.7 | 16.3 | NNE | 23 | NNE | 17 | 17.6 | 19.0 | 38.3 | 40.9 | 20.2 | 20.4 |
| 5/9/26 - 0515 | 38.7 | 30.4 | 48 | 20.8 | 32.4 | 12.3 | 14.7 | NNE | 26 | NNE | 20 | 16.6 | 17.0 | 38.6 | 40.9 | 20.2 | 20.4 |
| 5/9/26 - 0500 | 38.8 | 31.1 | 49 | 21.1 | 32.5 | 11.3 | 13.3 | NE | 50 | NNE | 24 | 14.3 | 15.9 | 38.8 | 40.9 | 20.2 | 20.4 |
| 5/9/26 - 0445 | 38.9 | 31.0 | 48 | 21.0 | 32.6 | 11.5 | 13.3 | NE | 54 | NNE | 24 | 14.9 | 15.4 | 38.8 | 40.9 | 20.2 | 20.4 |
| 5/9/26 - 0430 | 39.2 | 32.1 | 45 | 19.5 | 32.3 | 9.8 | 11.9 | E | 88 | NNE | 23 | 12.9 | 14.5 | 39.0 | 40.9 | 20.2 | 20.4 |
| 5/9/26 - 0415 | 39.3 | 32.8 | 44 | 19.5 | 32.4 | 9.0 | 11.1 | ESE | 116 | NNE | 22 | 11.3 | 12.8 | 39.1 | 40.9 | 20.2 | 20.4 |
| 5/9/26 - 0400 | 39.4 | 32.4 | 45 | 19.7 | 32.5 | 9.8 | 11.8 | E | 86 | NNE | 23 | 13.0 | 13.9 | 39.1 | 40.9 | 20.2 | 20.4 |
| 5/9/26 - 0345 | 39.2 | 32.3 | 47 | 20.6 | 32.7 | 8.8 | 11.6 | NE | 55 | NNE | 14 | 13.0 | 14.8 | 39.1 | 40.9 | 20.2 | 20.4 |
| 5/9/26 - 0330 | 39.3 | 32.4 | 47 | 20.6 | 32.7 | 9.4 | 11.7 | ENE | 67 | NNE | 23 | 12.7 | 14.5 | 39.1 | 40.9 | 20.2 | 20.4 |
| 5/9/26 - 0315 | 39.5 | 31.7 | 49 | 21.9 | 33.2 | 10.9 | 13.7 | NNE | 19 | N | 10 | 15.8 | 17.2 | 39.1 | 40.9 | 20.2 | 20.4 |
| 5/9/26 - 0300 | 39.7 | 31.6 | 48 | 21.7 | 33.2 | 12.3 | 15.6 | NNE | 15 | N | 4 | 16.5 | 17.9 | 39.5 | 40.9 | 20.2 | 20.4 |
| 5/9/26 - 0245 | 39.8 | 32.8 | 49 | 22.3 | 33.4 | 9.8 | 12.8 | NNE | 21 | NNE | 12 | 13.3 | 14.8 | 39.7 | 40.9 | 20.2 | 20.4 |
| 5/9/26 - 0230 | 40.0 | 31.8 | 50 | 23.0 | 33.8 | 12.3 | 15.5 | NNE | 15 | N | 10 | 17.9 | 18.6 | 39.7 | 40.9 | 20.2 | 20.4 |
| 5/9/26 - 0215 | 39.9 | 31.4 | 52 | 23.9 | 34.0 | 13.5 | 16.8 | NNE | 14 | N | 7 | 18.6 | 19.9 | 39.7 | 40.9 | 20.2 | 20.4 |
| 5/9/26 - 0200 | 40.3 | 31.7 | 48 | 22.0 | 33.6 | 14.2 | 16.9 | NNE | 24 | NNE | 18 | 19.3 | 19.7 | 40.0 | 40.9 | 20.2 | 20.4 |
| 5/9/26 - 0145 | 40.4 | 31.6 | 47 | 21.8 | 33.7 | 15.8 | 18.6 | NNE | 22 | NNE | 17 | 20.2 | 20.4 | 40.2 | 40.9 | 20.2 | 20.4 |
| 5/9/26 - 0130 | 40.6 | 32.4 | 48 | 22.2 | 33.9 | 13.8 | 17.2 | NNE | 19 | NNE | 13 | 17.5 | 19.2 | 40.4 | 40.9 | 17.6 | 19.2 |
| 5/9/26 - 0115 | 40.8 | 32.6 | 47 | 22.3 | 34.0 | 13.7 | 17.1 | NNE | 13 | N | 7 | 17.6 | 19.2 | 40.7 | 40.9 | 17.6 | 19.2 |
| 5/9/26 - 0100 | 41.0 | 33.1 | 45 | 21.1 | 33.8 | 12.6 | 16.1 | NNE | 12 | N | 5 | 17.2 | 18.3 | 33.8 | 46.0 | 35.3 | 34.7 |
| 5/9/26 - 0045 | 41.3 | 33.7 | 41 | 19.6 | 33.6 | 12.2 | 15.4 | NNE | 25 | N | 5 | 16.3 | 17.4 | 33.8 | 46.0 | 35.3 | 34.7 |
| 5/9/26 - 0030 | 41.5 | 34.8 | 38 | 17.9 | 33.3 | 10.4 | 13.2 | NE | 47 | NNE | 13 | 13.0 | 15.2 | 33.8 | 46.0 | 35.3 | 34.7 |
| 5/9/26 - 0015 | 41.7 | 34.3 | 38 | 17.9 | 33.4 | 11.4 | 14.4 | NNE | 19 | N | 9 | 16.3 | 18.1 | 33.8 | 46.0 | 35.3 | 34.7 |
| 5/9/26 - 0000 | 42.2 | 34.8 | 36 | 17.5 | 33.6 | 12.9 | 16.0 | NNE | 14 | N | 7 | 16.8 | 19.5 | 33.8 | 46.0 | 35.3 | 34.7 |
| 5/8/26 - 2345 | 42.3 | 34.9 | 37 | 17.6 | 33.7 | 12.9 | 16.3 | NNE | 14 | N | 6 | 16.4 | 18.8 | 33.8 | 46.0 | 35.3 | 34.7 |
| 5/8/26 - 2330 | 42.3 | 35.0 | 38 | 18.4 | 33.9 | 12.3 | 15.4 | N | 11 | N | 4 | 16.6 | 18.6 | 33.8 | 46.0 | 35.3 | 34.7 |
| 5/8/26 - 2315 | 42.5 | 35.0 | 40 | 19.8 | 34.3 | 12.6 | 15.0 | NNE | 22 | N | 5 | 17.5 | 18.8 | 33.8 | 46.0 | 35.3 | 34.7 |
| 5/8/26 - 2300 | 42.9 | 36.4 | 46 | 23.7 | 35.6 | 10.5 | 12.7 | NE | 34 | N | 360 | 14.5 | 18.1 | 33.8 | 46.0 | 35.3 | 34.7 |
| 5/8/26 - 2245 | 43.5 | 37.7 | 42 | 22.0 | 35.5 | 7.7 | 10.5 | SW | 221 | N | 357 | 13.6 | 14.3 | 33.8 | 46.0 | 35.3 | 34.7 |
| 5/8/26 - 2230 | 44.2 | 39.1 | 34 | 17.3 | 34.7 | 7.0 | 8.7 | SW | 220 | NE | 39 | 12.1 | 12.8 | 33.8 | 46.0 | 35.3 | 34.7 |
| 5/8/26 - 2215 | 43.6 | 40.2 | 42 | 21.9 | 35.5 | 2.9 | 6.1 | SW | 220 | SE | 145 | 8.6 | 12.1 | 33.8 | 46.0 | 35.3 | 34.7 |
| 5/8/26 - 2200 | 43.6 | 38.1 | 46 | 24.3 | 36.2 | 7.1 | 10.7 | SW | 220 | S | 183 | 13.0 | 16.1 | 33.8 | 46.0 | 35.3 | 34.7 |
| 5/8/26 - 2145 | 43.0 | 37.7 | 60 | 30.1 | 37.8 | 7.6 | 11.0 | SW | 220 | S | 190 | 11.2 | 14.5 | 33.8 | 46.0 | 35.3 | 34.7 |
| 5/8/26 - 2130 | 43.1 | 37.4 | 49 | 25.4 | 36.3 | 9.0 | 12.6 | SW | 220 | SSW | 206 | 11.4 | 14.5 | 33.8 | 46.0 | 35.3 | 34.7 |
| 5/8/26 - 2115 | 43.2 | 36.9 | 55 | 28.1 | 37.1 | 9.8 | 13.8 | SW | 220 | SSW | 204 | 13.8 | 16.6 | 33.8 | 46.0 | 35.3 | 34.7 |
| Max | 52.8 | 47.3 | 60 | 30.1 | 42.3 | 18.5 | 21.8 | - | - | 26.7 | 26.0 | 40.7 | 53.6 | 35.3 | 34.7 |
| Avg | 43.7 | 35.6 | 44 | 22.9 | 35.8 | 10.5 | 13.3 | - | - | 16.2 | 17.7 | - | - | - | - |
| Min | 37.0 | 26.3 | 30 | 17.3 | 32.0 | 0.2 | 5.0 | - | - | 0.2 | 10.5 | 33.8 | 40.9 | 17.6 | 19.2 |